This is the latest recevied weather packets stored in our database for station/object GW1573. If no packets are shown the sender has not sent any weather packets the latest 10 day(s).
| Time | Temp. | Humidity | Pressure | Rain* | Wind** | Luminosity | Snow |
|---|---|---|---|---|---|---|---|
| 1777913498 | 18.89° C | 60% | 1011.5 hPa | 0 mm | - | - | - |
| 1777911690 | 18.89° C | 56% | 1011.8 hPa | 0 mm | - | - | - |
| 1777911312 | 18.89° C | 56% | 1012.1 hPa | 0 mm | - | - | - |
| 1777910082 | 18.89° C | 59% | 1012.1 hPa | 0 mm | - | - | - |
| 1777908269 | 17.22° C | 61% | 1012.5 hPa | 0 mm | - | - | - |
| 1777907533 | 16.67° C | 63% | 1012.5 hPa | 0 mm | - | - | - |
| 1777906483 | 15° C | 69% | 1013.2 hPa | 0 mm | - | - | - |
| 1777903613 | 15.56° C | 60% | 1013.2 hPa | 0 mm | - | - | - |
| 1777902870 | 15.56° C | 59% | 1013.2 hPa | 0 mm | - | - | - |
| 1777902163 | 14.44° C | 60% | 1013.2 hPa | 0 mm | - | - | - |
| 1777898905 | 13.33° C | 61% | 1012.8 hPa | 0 mm | - | - | - |
| 1777896405 | 11.11° C | 66% | 1012.8 hPa | 0 mm | - | - | - |
| 1777895323 | 10° C | 69% | 1012.8 hPa | 0 mm | - | - | - |
| 1777892430 | 7.78° C | 79% | 1012.8 hPa | 0 mm | - | - | - |
| 1777888488 | 7.22° C | 82% | 1013.2 hPa | 0 mm | - | - | - |
| 1777888097 | 7.22° C | 81% | 1013.2 hPa | 0 mm | - | - | - |
| 1777885574 | 7.78° C | 77% | 1013.5 hPa | 0 mm | - | - | - |
| 1777884141 | 8.89° C | 76% | 1013.8 hPa | 0 mm | - | - | - |
| 1777882695 | 8.89° C | 76% | 1013.8 hPa | 0 mm | - | - | - |
| 1777882336 | 8.89° C | 76% | 1013.8 hPa | 0 mm | - | - | - |
| 1777880176 | 10° C | 72% | 1013.8 hPa | 0 mm | - | - | - |
| 1777873000 | 11.11° C | 60% | 1015.2 hPa | 0 mm | - | - | - |
| 1777868671 | 9.44° C | 70% | 1014.9 hPa | 0 mm | - | - | - |
| 1777867604 | 8.89° C | 73% | 1015.2 hPa | 0 mm | - | - | - |
| 1777865772 | 10° C | 66% | 1015.5 hPa | 0 mm | - | - | - |
* Rain since midnight (hover to see other rain measurements)
** Current wind speed in m/s (hover to see current wind gust speed)